Time;durP1;ratioP1;P1;durP2;ratioP2;P2;SDS_P1;SDS_P2;PMS_P1;PMS_P2;Temp;Humidity;BMP_temperature;BMP_pressure;BME280_temperature;BME280_humidity;BME280_pressure;Samples;Min_cycle;Max_cycle;Signal;HPM_P1;HPM_P2
2022/06/20 00:00:22;;;;;;;6.80;5.07;;;13.20;99.90;;;;;;4995858;28;20243;-63
2022/06/20 00:02:52;;;;;;;8.07;5.33;;;13.20;99.90;;;;;;4995234;28;20773;-63
2022/06/20 00:05:21;;;;;;;8.20;5.00;;;13.20;99.90;;;;;;4995333;28;20232;-63
2022/06/20 00:07:48;;;;;;;6.60;5.10;;;13.20;99.90;;;;;;4995226;28;20211;-63
2022/06/20 00:10:17;;;;;;;7.23;4.57;;;13.20;99.90;;;;;;4995088;28;20212;-63
2022/06/20 00:12:44;;;;;;;6.73;4.60;;;13.10;99.90;;;;;;4995393;28;20211;-63
2022/06/20 00:15:20;;;;;;;5.50;3.80;;;13.10;99.90;;;;;;4995013;28;20231;-63
2022/06/20 00:17:48;;;;;;;5.67;4.53;;;13.10;99.90;;;;;;4995043;28;20208;-63
2022/06/20 00:20:16;;;;;;;10.00;5.43;;;13.10;99.90;;;;;;4995230;28;20248;-63
2022/06/20 00:22:42;;;;;;;6.97;4.57;;;13.10;99.90;;;;;;4995062;28;20286;-63
2022/06/20 00:25:09;;;;;;;6.83;4.50;;;13.10;99.90;;;;;;4995046;28;20290;-63
2022/06/20 00:27:37;;;;;;;9.43;5.03;;;13.20;99.90;;;;;;4994579;28;20212;-63
2022/06/20 00:30:05;;;;;;;6.47;4.47;;;13.20;99.90;;;;;;4994921;28;20629;-63
2022/06/20 00:32:32;;;;;;;8.33;4.20;;;13.20;99.90;;;;;;4995140;28;20211;-63
2022/06/20 00:35:00;;;;;;;7.70;4.47;;;13.20;99.90;;;;;;4995017;28;20258;-63
2022/06/20 00:37:27;;;;;;;9.70;4.73;;;13.10;99.90;;;;;;4994524;28;20215;-63
2022/06/20 00:39:54;;;;;;;6.20;4.93;;;13.20;99.90;;;;;;4993507;28;20215;-63
2022/06/20 00:42:21;;;;;;;7.27;4.77;;;13.10;99.90;;;;;;4994571;28;20281;-63
2022/06/20 00:44:51;;;;;;;8.83;5.63;;;13.10;99.90;;;;;;4994747;28;20899;-63
2022/06/20 00:47:22;;;;;;;7.80;6.47;;;13.10;99.90;;;;;;4994597;28;20207;-63
2022/06/20 00:49:53;;;;;;;11.90;6.33;;;13.00;99.90;;;;;;4994376;28;20204;-63
2022/06/20 00:52:28;;;;;;;10.17;6.57;;;13.00;99.90;;;;;;4994905;28;20204;-63
2022/06/20 00:54:59;;;;;;;9.13;6.77;;;13.10;99.90;;;;;;4994308;28;20269;-63
2022/06/20 00:57:32;;;;;;;9.60;6.23;;;13.00;99.90;;;;;;4994305;28;20212;-63
2022/06/20 01:00:04;;;;;;;8.93;6.53;;;13.00;99.90;;;;;;4994458;28;20679;-63
2022/06/20 01:02:34;;;;;;;10.47;6.40;;;13.00;99.90;;;;;;4994292;28;20278;-63
2022/06/20 01:05:04;;;;;;;9.80;6.60;;;13.00;99.90;;;;;;4994466;28;20265;-63
2022/06/20 01:07:38;;;;;;;8.03;5.97;;;13.00;99.90;;;;;;4993730;28;20208;-63
2022/06/20 01:10:06;;;;;;;7.80;5.73;;;13.00;99.90;;;;;;4994393;28;20212;-63
2022/06/20 01:12:43;;;;;;;7.47;6.03;;;13.10;99.90;;;;;;4994076;28;20211;-63
2022/06/20 01:15:22;;;;;;;10.83;6.00;;;13.00;99.90;;;;;;4994141;28;20273;-63
2022/06/20 01:17:50;;;;;;;9.00;5.57;;;13.10;99.90;;;;;;4993496;28;20286;-63
2022/06/20 01:20:23;;;;;;;8.33;5.40;;;13.10;99.90;;;;;;4994090;28;20209;-62
2022/06/20 01:23:05;;;;;;;7.57;5.30;;;13.10;99.90;;;;;;4994115;28;20232;-63
2022/06/20 01:25:45;;;;;;;8.93;6.03;;;13.10;99.90;;;;;;4993672;28;20736;-63
2022/06/20 01:28:18;;;;;;;8.80;5.47;;;13.10;99.90;;;;;;4993500;28;20215;-62
2022/06/20 01:30:47;;;;;;;10.57;5.53;;;13.10;99.90;;;;;;4993886;28;20286;-63
2022/06/20 01:33:17;;;;;;;11.43;5.53;;;13.20;99.90;;;;;;4993954;28;20208;-62
2022/06/20 01:38:29;;;;;;;10.40;5.20;;;13.30;99.90;;;;;;4993746;28;20207;-62
2022/06/20 01:43:42;;;;;;;7.57;5.13;;;13.30;99.90;;;;;;4993560;28;20236;-62
2022/06/20 01:46:12;;;;;;;11.33;5.77;;;13.40;99.90;;;;;;4993148;28;20255;-62
2022/06/20 01:48:42;;;;;;;6.50;5.00;;;13.50;99.90;;;;;;4993483;28;20216;-62
2022/06/20 01:51:16;;;;;;;8.47;5.67;;;13.50;99.90;;;;;;4992865;28;20216;-62
2022/06/20 01:53:43;;;;;;;10.63;5.80;;;13.50;99.90;;;;;;4993427;28;20304;-62
2022/06/20 01:56:11;;;;;;;14.53;6.60;;;13.40;99.90;;;;;;4993082;28;20620;-62
2022/06/20 01:58:41;;;;;;;12.00;6.07;;;13.40;99.90;;;;;;4993447;28;20208;-62
2022/06/20 02:01:09;;;;;;;10.50;6.40;;;13.40;99.90;;;;;;4993471;28;20212;-62
2022/06/20 02:03:40;;;;;;;12.23;6.23;;;13.30;99.90;;;;;;4992677;28;20219;-63
2022/06/20 02:06:09;;;;;;;10.27;6.77;;;13.20;99.90;;;;;;4993195;28;20238;-63
2022/06/20 02:08:38;;;;;;;12.53;7.20;;;13.20;99.90;;;;;;4993420;28;20262;-63
2022/06/20 02:11:10;;;;;;;10.53;6.93;;;13.20;99.90;;;;;;4993009;28;20713;-63
2022/06/20 02:13:41;;;;;;;10.37;7.07;;;13.10;99.90;;;;;;4993259;28;20207;-62
2022/06/20 02:16:14;;;;;;;10.90;7.33;;;13.10;99.90;;;;;;4992333;28;20777;-62
2022/06/20 02:18:45;;;;;;;14.13;7.53;;;13.10;99.90;;;;;;4993128;28;20208;-62
2022/06/20 02:21:16;;;;;;;8.93;7.10;;;13.10;99.90;;;;;;4992967;28;20207;-62
2022/06/20 02:23:48;;;;;;;12.23;8.20;;;13.10;99.90;;;;;;4993042;28;20278;-62
2022/06/20 02:26:17;;;;;;;11.33;7.53;;;13.00;99.90;;;;;;4992572;28;20232;-62
2022/06/20 02:28:49;;;;;;;14.27;7.93;;;13.00;99.90;;;;;;4992716;28;20215;-63
2022/06/20 02:31:18;;;;;;;12.53;7.50;;;13.00;99.90;;;;;;4992952;28;20208;-62
2022/06/20 02:33:46;;;;;;;10.57;7.80;;;12.90;99.90;;;;;;4992582;28;20203;-62
2022/06/20 02:36:13;;;;;;;14.70;8.27;;;12.90;99.90;;;;;;4992175;28;20293;-62
2022/06/20 02:38:40;;;;;;;15.77;8.73;;;12.90;99.90;;;;;;4992172;28;20631;-62
2022/06/20 02:41:07;;;;;;;20.17;9.00;;;12.90;99.90;;;;;;4992400;28;20266;-62
2022/06/20 02:43:40;;;;;;;11.93;8.60;;;12.80;99.90;;;;;;4992178;28;20309;-63
2022/06/20 02:46:11;;;;;;;14.10;8.80;;;12.70;99.90;;;;;;4992062;28;20223;-62
2022/06/20 02:48:43;;;;;;;11.77;9.00;;;12.70;99.90;;;;;;4992238;28;20263;-63
2022/06/20 02:51:13;;;;;;;12.50;8.77;;;12.70;99.90;;;;;;4992242;28;20583;-63
2022/06/20 02:53:44;;;;;;;12.70;9.57;;;12.60;99.90;;;;;;4992207;28;20674;-62
2022/06/20 02:56:15;;;;;;;15.60;9.30;;;12.60;99.90;;;;;;4991931;28;20656;-62
2022/06/20 02:58:48;;;;;;;14.43;8.70;;;12.50;99.90;;;;;;4992735;28;20611;-62
2022/06/20 03:01:21;;;;;;;15.43;9.63;;;12.50;99.90;;;;;;4992520;28;20215;-63
2022/06/20 03:03:52;;;;;;;14.00;9.40;;;12.50;99.90;;;;;;4994848;28;20223;-63
2022/06/20 03:06:25;;;;;;;19.47;9.40;;;12.40;99.90;;;;;;4995862;28;20266;-63
2022/06/20 03:08:52;;;;;;;15.30;9.97;;;12.40;99.90;;;;;;4996323;28;20297;-62
2022/06/20 03:11:20;;;;;;;15.90;8.77;;;12.30;99.90;;;;;;4996546;28;20211;-62
2022/06/20 03:13:47;;;;;;;16.40;10.93;;;12.30;99.90;;;;;;4995892;28;20671;-62
2022/06/20 03:16:14;;;;;;;16.17;9.80;;;12.30;99.90;;;;;;4995779;28;20235;-62
2022/06/20 03:18:43;;;;;;;16.80;9.80;;;12.40;99.90;;;;;;4996385;28;20211;-62
2022/06/20 03:21:13;;;;;;;14.80;8.40;;;12.30;99.90;;;;;;4996423;28;20634;-62
2022/06/20 03:23:39;;;;;;;11.50;8.60;;;12.30;99.90;;;;;;4996160;28;20227;-62
2022/06/20 03:26:14;;;;;;;13.63;8.33;;;12.20;99.90;;;;;;4995762;28;20729;-62
2022/06/20 03:28:40;;;;;;;13.93;8.13;;;12.20;99.90;;;;;;4995937;28;20207;-62
2022/06/20 03:31:09;;;;;;;12.27;7.67;;;12.20;99.90;;;;;;4995837;28;20270;-62
2022/06/20 03:33:36;;;;;;;14.90;7.33;;;12.20;99.90;;;;;;4996433;28;20208;-63
2022/06/20 03:36:08;;;;;;;12.57;6.93;;;12.20;99.90;;;;;;4995403;28;20228;-63
2022/06/20 03:38:38;;;;;;;15.20;7.70;;;12.20;99.90;;;;;;4996045;28;20215;-62
2022/06/20 03:41:05;;;;;;;12.80;5.90;;;12.20;99.90;;;;;;4995551;28;20592;-62
2022/06/20 03:43:34;;;;;;;9.27;6.00;;;12.10;99.90;;;;;;4995585;28;20286;-62
2022/06/20 03:46:08;;;;;;;11.80;6.40;;;12.10;99.90;;;;;;4995367;28;20236;-62
2022/06/20 03:48:40;;;;;;;11.40;6.97;;;12.10;99.90;;;;;;4995871;28;20203;-62
2022/06/20 03:51:12;;;;;;;12.57;6.17;;;12.20;99.90;;;;;;4995743;28;20211;-62
2022/06/20 03:53:47;;;;;;;11.30;6.37;;;12.10;99.90;;;;;;4995606;28;20230;-62
2022/06/20 03:56:19;;;;;;;8.03;5.57;;;12.10;99.90;;;;;;4995182;28;20227;-63
2022/06/20 03:58:51;;;;;;;10.10;6.00;;;12.10;99.90;;;;;;4995704;28;20215;-62
2022/06/20 04:01:24;;;;;;;11.43;6.00;;;12.20;99.90;;;;;;4995521;28;20215;-62
2022/06/20 04:03:57;;;;;;;14.33;5.73;;;12.10;99.90;;;;;;4995281;28;20235;-63
2022/06/20 04:06:29;;;;;;;16.20;5.97;;;12.10;99.90;;;;;;4995017;28;20223;-63
2022/06/20 04:11:51;;;;;;;10.37;5.30;;;12.20;99.90;;;;;;4995242;28;20250;-63
2022/06/20 04:14:21;;;;;;;10.07;5.23;;;12.30;99.90;;;;;;4994803;28;20211;-63
2022/06/20 04:16:53;;;;;;;8.30;5.23;;;12.30;99.90;;;;;;4994705;28;20224;-63
2022/06/20 04:19:23;;;;;;;6.97;5.10;;;12.30;99.90;;;;;;4996180;28;20212;-69
2022/06/20 04:21:53;;;;;;;8.20;5.00;;;12.40;99.90;;;;;;4995300;28;20203;-63
2022/06/20 04:24:28;;;;;;;10.27;4.97;;;12.40;99.90;;;;;;4995371;28;20278;-63
2022/06/20 04:27:00;;;;;;;10.10;4.63;;;12.30;99.90;;;;;;4994730;28;20227;-63
2022/06/20 04:29:31;;;;;;;6.80;4.20;;;12.30;99.90;;;;;;4995751;28;20212;-61
2022/06/20 04:32:02;;;;;;;9.60;4.77;;;12.30;99.90;;;;;;4996212;28;20212;-62
2022/06/20 04:34:35;;;;;;;8.40;4.37;;;12.20;99.90;;;;;;4996137;28;20211;-63
2022/06/20 04:37:14;;;;;;;8.83;4.83;;;12.30;99.90;;;;;;4996774;28;20228;-66
2022/06/20 04:39:48;;;;;;;10.87;4.97;;;12.20;99.90;;;;;;4993051;28;20207;-62
2022/06/20 04:42:20;;;;;;;11.77;5.00;;;12.30;99.90;;;;;;4995046;28;20250;-62
2022/06/20 04:44:52;;;;;;;11.43;4.80;;;12.30;99.90;;;;;;4997349;28;20235;-62
2022/06/20 04:47:32;;;;;;;12.07;4.90;;;12.40;99.90;;;;;;4994344;28;20204;-62
2022/06/20 04:49:59;;;;;;;11.07;5.07;;;12.50;99.90;;;;;;4993900;28;20207;-61
2022/06/20 04:52:28;;;;;;;9.53;4.57;;;12.60;99.90;;;;;;4995185;28;20215;-61
2022/06/20 04:54:57;;;;;;;9.37;5.33;;;12.60;99.90;;;;;;4994801;28;20208;-61
2022/06/20 04:57:27;;;;;;;7.70;4.27;;;12.70;99.90;;;;;;4993970;28;20683;-62
2022/06/20 04:59:55;;;;;;;7.23;4.23;;;12.80;99.90;;;;;;4994107;28;20212;-61
2022/06/20 05:02:23;;;;;;;8.60;4.20;;;12.80;99.90;;;;;;4994049;28;20651;-61
2022/06/20 05:04:53;;;;;;;8.53;4.37;;;12.80;99.90;;;;;;4993796;28;20694;-61
2022/06/20 05:07:25;;;;;;;12.60;4.37;;;12.80;99.90;;;;;;4993451;28;20215;-61
2022/06/20 05:09:57;;;;;;;6.53;4.70;;;12.80;99.90;;;;;;4994173;28;20213;-61
2022/06/20 05:12:34;;;;;;;5.73;4.03;;;12.90;99.90;;;;;;4993719;28;20204;-61
2022/06/20 05:15:07;;;;;;;7.87;4.03;;;12.90;99.90;;;;;;4993741;28;20207;-62
2022/06/20 05:17:36;;;;;;;7.93;4.43;;;12.90;99.90;;;;;;4993228;28;20208;-62
2022/06/20 05:20:08;;;;;;;8.40;4.43;;;12.90;99.90;;;;;;4983750;28;20628;-63
2022/06/20 05:22:40;;;;;;;9.30;4.80;;;12.80;99.90;;;;;;4993394;28;20209;-62
2022/06/20 05:25:16;;;;;;;8.60;4.90;;;12.80;99.90;;;;;;4992889;28;20267;-62
2022/06/20 05:27:47;;;;;;;7.83;4.30;;;12.90;99.90;;;;;;4992841;28;20287;-63
2022/06/20 05:30:19;;;;;;;9.47;4.77;;;12.90;99.90;;;;;;4992760;28;20679;-63
2022/06/20 05:32:50;;;;;;;10.97;4.10;;;12.90;99.90;;;;;;4993038;28;20670;-64
2022/06/20 05:35:22;;;;;;;10.57;5.20;;;12.80;99.90;;;;;;4993097;28;20228;-64
2022/06/20 05:37:55;;;;;;;10.37;5.17;;;12.80;99.90;;;;;;4992694;28;20262;-63
2022/06/20 05:40:27;;;;;;;7.47;4.23;;;12.80;99.90;;;;;;4992390;28;20263;-64
2022/06/20 05:42:54;;;;;;;12.20;4.90;;;12.90;99.90;;;;;;4992608;28;20208;-64
2022/06/20 05:45:23;;;;;;;8.47;5.17;;;12.80;99.90;;;;;;4993183;28;20260;-66
2022/06/20 05:47:52;;;;;;;9.13;4.13;;;12.80;99.90;;;;;;4992478;28;20212;-67
2022/06/20 05:50:38;;;;;;;9.83;4.90;;;12.80;99.90;;;;;;4992726;28;20213;-64
2022/06/20 05:53:10;;;;;;;11.97;4.50;;;12.70;99.90;;;;;;4993099;28;20215;-66
2022/06/20 05:55:42;;;;;;;12.17;4.83;;;12.70;99.90;;;;;;4992819;28;20261;-65
2022/06/20 05:58:14;;;;;;;10.03;3.93;;;12.60;99.90;;;;;;4992662;28;20698;-65
2022/06/20 06:00:43;;;;;;;9.80;3.73;;;12.50;99.90;;;;;;4992064;28;20237;-65
2022/06/20 06:03:14;;;;;;;15.43;3.57;;;12.40;99.90;;;;;;4992798;28;20211;-66
2022/06/20 06:05:44;;;;;;;7.97;3.87;;;12.40;99.90;;;;;;4992721;28;20631;-67
2022/06/20 06:08:21;;;;;;;9.67;4.13;;;12.40;99.90;;;;;;4993109;28;20215;-65
2022/06/20 06:10:53;;;;;;;13.10;4.43;;;12.30;99.90;;;;;;4992492;28;20654;-62
2022/06/20 06:13:26;;;;;;;11.50;4.00;;;12.30;99.90;;;;;;4992211;28;20211;-63
2022/06/20 06:18:49;;;;;;;11.33;4.77;;;12.30;99.90;;;;;;4992045;28;20199;-62
2022/06/20 06:21:16;;;;;;;10.90;4.23;;;12.20;99.90;;;;;;4992021;28;20207;-62
2022/06/20 06:23:44;;;;;;;18.03;5.10;;;12.20;99.90;;;;;;4992287;28;20606;-66
2022/06/20 06:26:15;;;;;;;13.97;4.80;;;12.20;99.90;;;;;;4991557;28;20231;-64
2022/06/20 06:28:43;;;;;;;9.00;4.80;;;12.30;99.90;;;;;;4992162;28;20222;-64
2022/06/20 06:31:17;;;;;;;8.03;4.83;;;12.50;99.90;;;;;;4991856;28;20215;-64
2022/06/20 06:33:50;;;;;;;12.60;4.53;;;12.60;99.90;;;;;;4992161;28;20204;-64
2022/06/20 06:36:22;;;;;;;11.47;4.60;;;12.60;99.90;;;;;;4991664;28;20293;-64
2022/06/20 06:38:56;;;;;;;12.07;4.20;;;12.70;99.90;;;;;;4991311;28;20617;-64
2022/06/20 06:41:29;;;;;;;11.53;4.20;;;12.80;99.90;;;;;;4991880;28;20302;-63
2022/06/20 06:43:58;;;;;;;10.40;3.90;;;12.70;99.90;;;;;;4991928;28;20216;-64
2022/06/20 06:46:33;;;;;;;8.33;3.67;;;12.70;99.90;;;;;;4991887;28;20231;-64
2022/06/20 06:49:09;;;;;;;10.17;4.50;;;12.90;99.90;;;;;;4986125;28;20588;-64
2022/06/20 06:51:41;;;;;;;8.40;4.00;;;13.00;99.90;;;;;;4992038;28;20208;-64
2022/06/20 06:54:15;;;;;;;10.37;4.17;;;13.10;99.90;;;;;;4992125;28;20203;-64
2022/06/20 06:56:47;;;;;;;10.97;4.17;;;13.20;99.90;;;;;;4991576;28;20233;-62
2022/06/20 06:59:18;;;;;;;10.57;3.53;;;13.30;99.90;;;;;;4992373;28;20208;-62
2022/06/20 07:01:49;;;;;;;10.67;3.57;;;13.20;99.90;;;;;;4990801;28;20212;-62
2022/06/20 07:04:19;;;;;;;11.03;3.93;;;13.10;99.90;;;;;;4991648;28;20723;-63
2022/06/20 07:06:49;;;;;;;15.30;3.90;;;13.20;99.90;;;;;;4991480;28;20263;-62
2022/06/20 07:09:22;;;;;;;7.07;4.00;;;13.20;99.90;;;;;;4991494;28;20366;-62
2022/06/20 07:11:57;;;;;;;10.97;4.30;;;13.30;99.90;;;;;;4991403;28;20300;-62
2022/06/20 07:14:24;;;;;;;8.53;3.33;;;13.40;99.90;;;;;;4991212;28;20233;-62
2022/06/20 07:16:56;;;;;;;9.37;3.33;;;13.50;99.90;;;;;;4991476;28;20227;-64
2022/06/20 07:19:24;;;;;;;11.43;3.97;;;13.50;99.90;;;;;;4991435;28;20329;-62
2022/06/20 07:21:51;;;;;;;8.57;3.20;;;13.60;99.90;;;;;;4991255;28;20206;-63
2022/06/20 07:24:22;;;;;;;14.47;4.07;;;13.70;99.90;;;;;;4991493;28;20233;-63
2022/06/20 07:26:54;;;;;;;6.53;2.93;;;13.80;99.90;;;;;;4990872;28;20234;-64
2022/06/20 07:29:24;;;;;;;9.93;3.53;;;14.00;99.90;;;;;;4991862;28;20213;-62
2022/06/20 07:31:55;;;;;;;9.23;3.53;;;14.20;99.90;;;;;;4991285;28;20214;-63
2022/06/20 07:34:28;;;;;;;9.13;3.47;;;14.30;99.90;;;;;;4991693;28;20218;-63
2022/06/20 07:36:59;;;;;;;7.77;3.50;;;14.40;99.90;;;;;;4990870;28;20258;-62
2022/06/20 07:39:30;;;;;;;14.27;4.37;;;14.40;99.90;;;;;;4991687;28;20216;-61
2022/06/20 07:42:04;;;;;;;9.27;4.30;;;14.50;99.90;;;;;;4991284;28;20576;-60
2022/06/20 07:44:37;;;;;;;9.70;5.00;;;14.50;99.90;;;;;;4991476;28;20231;-60
2022/06/20 07:47:09;;;;;;;11.60;4.60;;;14.70;99.90;;;;;;4991315;28;20230;-60
2022/06/20 07:49:41;;;;;;;6.87;4.00;;;14.60;99.90;;;;;;4993043;28;20282;-63
2022/06/20 07:52:12;;;;;;;8.83;3.80;;;14.70;99.90;;;;;;4994905;28;20210;-64
2022/06/20 07:54:43;;;;;;;8.50;3.30;;;14.90;99.90;;;;;;4994942;28;20208;-65
2022/06/20 07:57:15;;;;;;;11.30;3.70;;;15.20;99.90;;;;;;4994439;28;20234;-65
2022/06/20 07:59:47;;;;;;;10.43;3.63;;;15.10;99.90;;;;;;4994921;28;20226;-63
2022/06/20 08:02:20;;;;;;;11.10;3.33;;;14.90;99.90;;;;;;4994245;28;20953;-63
2022/06/20 08:04:50;;;;;;;12.10;4.07;;;14.90;99.90;;;;;;4995041;28;20223;-64
2022/06/20 08:07:24;;;;;;;4.37;2.97;;;15.00;99.90;;;;;;4994520;28;20258;-63
2022/06/20 08:09:57;;;;;;;6.60;3.27;;;15.20;99.90;;;;;;4993916;28;20215;-63
2022/06/20 08:12:30;;;;;;;8.07;3.03;;;15.30;99.90;;;;;;4994024;28;20199;-63
2022/06/20 08:15:02;;;;;;;6.10;2.67;;;15.40;99.90;;;;;;4994591;28;20270;-64
2022/06/20 08:17:30;;;;;;;8.73;2.33;;;15.50;99.90;;;;;;4994748;28;20273;-63
2022/06/20 08:19:58;;;;;;;5.27;2.50;;;15.40;99.90;;;;;;4994380;28;20214;-63
2022/06/20 08:22:30;;;;;;;7.50;2.50;;;15.50;99.90;;;;;;4994180;28;20218;-64
2022/06/20 08:25:02;;;;;;;6.03;2.47;;;15.60;99.90;;;;;;4993676;28;20808;-62
2022/06/20 08:27:38;;;;;;;7.30;2.97;;;15.80;99.90;;;;;;4994471;28;20200;-66
2022/06/20 08:30:11;;;;;;;9.13;3.80;;;16.10;99.90;;;;;;4994112;28;20203;-64
2022/06/20 08:32:44;;;;;;;5.63;2.67;;;16.30;99.90;;;;;;4993975;28;20211;-63
2022/06/20 08:35:20;;;;;;;8.40;2.77;;;16.30;99.90;;;;;;4994299;28;20280;-62
2022/06/20 08:37:51;;;;;;;6.47;2.80;;;16.20;99.90;;;;;;4993777;28;20219;-62
2022/06/20 08:40:43;;;;;;;6.63;2.73;;;16.30;99.90;;;;;;4994045;28;20211;-64
2022/06/20 08:44:00;;;;;;;6.77;2.63;;;16.20;91.30;;;;;;4974247;28;20894;-59
2022/06/20 08:46:51;;;;;;;13.00;3.30;;;16.20;99.90;;;;;;4974484;28;20237;-54
2022/06/20 08:49:52;;;;;;;10.37;3.43;;;16.10;99.90;;;;;;4974165;28;20216;-59
2022/06/20 08:52:59;;;;;;;9.97;4.07;;;15.80;95.50;;;;;;4974273;28;20224;-62
2022/06/20 08:56:02;;;;;;;4.73;2.83;;;15.60;99.90;;;;;;4952441;29;20268;-58
2022/06/20 08:58:40;;;;;;;5.73;2.73;;;16.00;99.90;;;;;;4952382;28;20216;-58
2022/06/20 09:01:16;;;;;;;3.80;2.67;;;16.00;7.20;;;;;;4973680;28;20214;-58
2022/06/20 09:04:02;;;;;;;7.90;2.60;;;15.80;1.00;;;;;;4993895;28;20749;-59
2022/06/20 09:07:10;;;;;;;5.63;2.37;;;16.20;19.00;;;;;;4993121;28;20227;-59
2022/06/20 09:09:55;;;;;;;7.60;2.50;;;16.40;1.00;;;;;;4993785;28;20211;-58
2022/06/20 09:12:46;;;;;;;4.07;1.50;;;16.50;99.90;;;;;;4993077;28;20203;-58
2022/06/20 09:15:36;;;;;;;3.87;1.60;;;16.80;99.90;;;;;;4993329;28;20707;-58
2022/06/20 09:18:05;;;;;;;3.23;1.80;;;17.10;99.90;;;;;;4993254;28;20610;-63
2022/06/20 09:20:37;;;;;;;6.30;1.73;;;17.30;1.00;;;;;;4992920;28;20208;-61
2022/06/20 09:23:13;;;;;;;7.00;2.10;;;17.30;99.90;;;;;;4993129;28;20218;-59
2022/06/20 09:25:50;;;;;;;4.57;1.70;;;17.20;1.00;;;;;;4992704;28;20237;-59
2022/06/20 09:28:37;;;;;;;3.73;1.50;;;17.20;1.00;;;;;;4992889;28;20265;-61
2022/06/20 09:31:14;;;;;;;5.80;1.50;;;17.20;1.00;;;;;;4992995;28;20216;-64
2022/06/20 09:34:03;;;;;;;2.87;1.40;;;17.00;1.00;;;;;;4992999;28;20790;-67
2022/06/20 09:36:57;;;;;;;3.77;1.63;;;16.90;1.00;;;;;;4992913;28;20286;-63
2022/06/20 09:39:46;;;;;;;4.83;1.90;;;17.20;1.00;;;;;;4993225;28;20212;-64
2022/06/20 09:42:26;;;;;;;3.40;1.47;;;17.40;99.90;;;;;;4992562;28;20215;-63
2022/06/20 09:45:03;;;;;;;2.57;1.50;;;17.50;1.00;;;;;;4993160;28;20646;-63
2022/06/20 09:47:42;;;;;;;4.13;1.40;;;17.90;1.00;;;;;;4992821;28;20211;-65
2022/06/20 09:50:38;;;;;;;5.47;1.93;;;17.50;99.90;;;;;;4993209;28;20218;-65
2022/06/20 09:53:19;;;;;;;4.33;1.77;;;17.50;1.00;;;;;;4993324;28;20579;-64
2022/06/20 09:55:54;;;;;;;4.20;1.93;;;17.50;1.00;;;;;;4993282;28;20228;-65
2022/06/20 09:58:30;;;;;;;4.13;2.20;;;17.50;99.90;;;;;;4992932;28;20207;-64
2022/06/20 10:01:04;;;;;;;3.17;2.13;;;17.50;99.90;;;;;;4992253;28;20262;-59
2022/06/20 10:03:41;;;;;;;8.07;2.23;;;17.50;1.00;;;;;;4992746;28;20257;-60
2022/06/20 10:06:14;;;;;;;5.73;2.07;;;17.70;99.90;;;;;;4992091;28;20725;-60
2022/06/20 10:08:52;;;;;;;6.10;2.00;;;17.70;99.90;;;;;;4992053;28;20219;-65
2022/06/20 10:11:25;;;;;;;4.97;2.20;;;17.70;99.90;;;;;;4991829;28;20293;-64
2022/06/20 10:14:00;;;;;;;5.90;2.20;;;17.50;99.90;;;;;;4991893;28;20705;-62
2022/06/20 10:16:35;;;;;;;4.37;2.00;;;17.60;1.00;;;;;;4992123;28;20752;-63
2022/06/20 10:19:12;;;;;;;4.53;2.33;;;17.70;99.90;;;;;;4992306;28;20195;-63
2022/06/20 10:21:42;;;;;;;5.53;2.07;;;17.60;99.90;;;;;;4991647;28;20257;-63
2022/06/20 10:24:30;;;;;;;4.17;2.23;;;17.70;1.00;;;;;;4992526;28;20215;-64
2022/06/20 10:27:15;;;;;;;6.07;3.00;;;17.90;99.90;;;;;;4992018;28;20645;-63
2022/06/20 10:30:04;;;;;;;4.47;2.67;;;18.10;99.90;;;;;;4992589;28;20265;-64
2022/06/20 10:32:52;;;;;;;4.50;2.10;;;18.20;99.90;;;;;;4991555;28;20715;-63
2022/06/20 10:35:27;;;;;;;6.80;2.07;;;18.00;99.90;;;;;;4992074;28;20710;-64
2022/06/20 10:38:03;;;;;;;7.60;2.20;;;17.90;99.90;;;;;;4992064;28;20196;-63
2022/06/20 10:40:36;;;;;;;5.20;1.73;;;17.90;99.90;;;;;;4991903;28;20821;-62
2022/06/20 10:43:09;;;;;;;4.33;1.93;;;17.90;99.90;;;;;;4991384;28;20275;-61
2022/06/20 10:45:44;;;;;;;5.73;2.17;;;17.90;99.90;;;;;;4991972;28;20231;-65
2022/06/20 10:48:57;;;;;;;5.87;2.10;;;18.30;99.90;;;;;;4991661;28;20299;-64
2022/06/20 10:51:35;;;;;;;7.67;3.03;;;18.70;99.90;;;;;;4991781;28;20683;-63
2022/06/20 10:54:14;;;;;;;14.13;8.60;;;18.70;99.90;;;;;;4991926;28;20211;-64
2022/06/20 10:56:48;;;;;;;4.93;2.10;;;18.70;99.90;;;;;;4992759;28;20784;-65
2022/06/20 10:59:27;;;;;;;4.90;1.67;;;18.80;99.90;;;;;;4991786;28;20208;-64
2022/06/20 11:02:04;;;;;;;4.87;2.43;;;18.80;99.90;;;;;;4991462;28;20211;-64
2022/06/20 11:04:58;;;;;;;5.97;3.50;;;18.70;99.90;;;;;;4991700;28;20667;-64
2022/06/20 11:07:38;;;;;;;6.13;2.73;;;18.60;99.90;;;;;;4991363;28;20204;-64
2022/06/20 11:10:27;;;;;;;4.50;1.50;;;18.70;99.90;;;;;;4991875;28;20211;-63
2022/06/20 11:13:06;;;;;;;6.63;3.00;;;19.00;99.90;;;;;;4991505;28;20203;-64
2022/06/20 11:15:39;;;;;;;2.90;1.80;;;19.30;99.90;;;;;;4991607;28;20231;-64
2022/06/20 11:18:23;;;;;;;6.13;3.33;;;19.30;99.90;;;;;;4991981;28;20290;-64
2022/06/20 11:20:57;;;;;;;4.37;2.37;;;19.30;99.90;;;;;;4991372;28;20273;-63
2022/06/20 11:23:31;;;;;;;8.20;2.33;;;19.00;99.90;;;;;;4991653;28;20208;-63
2022/06/20 11:26:07;;;;;;;7.90;2.40;;;18.90;99.90;;;;;;4994648;28;20234;-62
2022/06/20 11:28:54;;;;;;;4.70;1.87;;;19.10;99.90;;;;;;4995313;28;20634;-62
2022/06/20 11:31:33;;;;;;;4.63;2.07;;;19.30;99.90;;;;;;4995050;28;20221;-62
2022/06/20 11:34:29;;;;;;;5.53;1.70;;;19.70;99.90;;;;;;4995464;28;20215;-62
2022/06/20 11:37:12;;;;;;;6.27;2.10;;;19.90;99.90;;;;;;4995496;28;20572;-63
2022/06/20 11:39:51;;;;;;;3.47;1.97;;;19.90;99.90;;;;;;4995318;28;20234;-60
2022/06/20 11:42:55;;;;;;;4.20;2.10;;;19.60;99.90;;;;;;4993884;28;20630;-63
2022/06/20 11:45:39;;;;;;;4.50;2.10;;;19.80;99.90;;;;;;4994598;28;20681;-63
2022/06/20 11:48:35;;;;;;;3.97;1.87;;;20.00;99.90;;;;;;4995143;28;20619;-64
2022/06/20 11:51:09;;;;;;;3.17;1.63;;;20.10;99.90;;;;;;4994689;28;20208;-66
2022/06/20 11:53:47;;;;;;;4.10;1.50;;;20.20;99.90;;;;;;4994765;28;20266;-62
2022/06/20 11:56:23;;;;;;;2.97;1.80;;;20.10;99.90;;;;;;4994260;28;20227;-61
2022/06/20 11:59:07;;;;;;;3.80;1.67;;;20.10;99.90;;;;;;4995031;28;20262;-61
2022/06/20 12:01:41;;;;;;;3.07;1.70;;;20.20;99.90;;;;;;4994071;28;20223;-63
2022/06/20 12:04:15;;;;;;;4.00;2.00;;;20.40;99.90;;;;;;4995128;28;20207;-63
2022/06/20 12:06:50;;;;;;;4.53;1.93;;;20.60;99.90;;;;;;4994649;28;20230;-63
2022/06/20 12:09:25;;;;;;;4.20;1.90;;;20.50;99.90;;;;;;4994820;28;20647;-63
2022/06/20 12:12:16;;;;;;;4.83;1.80;;;20.50;99.90;;;;;;4994277;28;20265;-60
2022/06/20 12:14:53;;;;;;;6.33;1.80;;;20.10;99.90;;;;;;4994130;28;20678;-64
2022/06/20 12:17:32;;;;;;;6.83;1.77;;;20.10;99.90;;;;;;4994540;28;20269;-64
2022/06/20 12:23:24;;;;;;;3.97;1.73;;;20.10;99.90;;;;;;4994415;28;20202;-64
2022/06/20 12:25:54;;;;;;;3.10;1.60;;;20.10;99.90;;;;;;4994020;28;20228;-64
2022/06/20 12:28:26;;;;;;;8.90;1.93;;;20.10;99.90;;;;;;4994491;28;20253;-64
2022/06/20 12:31:01;;;;;;;4.27;1.67;;;19.90;99.90;;;;;;4993798;28;20208;-62
2022/06/20 12:33:30;;;;;;;5.40;2.20;;;20.00;99.90;;;;;;4994572;28;20206;-63
2022/06/20 12:36:02;;;;;;;3.60;2.00;;;20.30;99.90;;;;;;4994441;28;20247;-62
2022/06/20 12:38:35;;;;;;;5.33;1.90;;;20.30;99.90;;;;;;4994402;28;20196;-63
2022/06/20 12:41:07;;;;;;;7.37;2.20;;;20.30;99.90;;;;;;4993906;28;20617;-63
2022/06/20 12:43:44;;;;;;;6.40;2.50;;;20.40;99.90;;;;;;4993992;28;20280;-64
2022/06/20 12:46:27;;;;;;;3.33;2.00;;;20.40;99.90;;;;;;4993849;28;20231;-65
2022/06/20 12:49:11;;;;;;;5.57;2.23;;;20.50;99.90;;;;;;4993834;28;20265;-67
2022/06/20 12:51:47;;;;;;;4.30;2.63;;;20.40;99.90;;;;;;4993297;28;20269;-64
2022/06/20 12:54:34;;;;;;;4.17;1.80;;;20.50;99.90;;;;;;4993976;28;20269;-64
2022/06/20 12:57:18;;;;;;;3.77;1.80;;;20.70;99.90;;;;;;4993530;28;20282;-64
2022/06/20 13:00:14;;;;;;;8.40;2.10;;;21.00;99.90;;;;;;4993928;28;20714;-64
2022/06/20 13:03:18;;;;;;;7.67;2.27;;;21.10;99.90;;;;;;4993110;28;20798;-64
2022/06/20 13:06:11;;;;;;;4.33;1.93;;;20.70;99.90;;;;;;4985875;28;20227;-65
2022/06/20 13:08:52;;;;;;;5.90;2.30;;;20.80;99.90;;;;;;4993489;28;20311;-64
2022/06/20 13:11:36;;;;;;;3.43;2.10;;;20.60;99.90;;;;;;4993721;28;20203;-63
2022/06/20 13:14:37;;;;;;;4.63;2.13;;;20.10;99.90;;;;;;4993353;28;20266;-64
2022/06/20 13:17:21;;;;;;;6.13;2.17;;;20.00;99.90;;;;;;4993770;28;20230;-64
2022/06/20 13:20:07;;;;;;;4.73;1.97;;;20.00;99.90;;;;;;4993293;28;20211;-64
2022/06/20 13:22:41;;;;;;;3.13;1.80;;;19.90;99.90;;;;;;4993008;28;20624;-63
2022/06/20 13:25:23;;;;;;;3.60;1.77;;;19.80;99.90;;;;;;4993738;28;20725;-64
2022/06/20 13:27:54;;;;;;;3.70;1.60;;;20.20;99.90;;;;;;4993429;28;20259;-65
2022/06/20 13:30:26;;;;;;;3.67;2.23;;;20.30;99.90;;;;;;4993338;28;20688;-63
2022/06/20 13:33:03;;;;;;;4.13;1.80;;;20.40;99.90;;;;;;4992465;28;20208;-66
2022/06/20 13:35:41;;;;;;;4.97;1.77;;;20.60;99.90;;;;;;4992723;28;20231;-64